sensor_id;sensor_type;location;lat;lon;timestamp;temperature;humidity
67862;DHT22;54665;51.462;6.698;2022-08-25T00:02:00;20.09;68.01
67862;DHT22;54665;51.462;6.698;2022-08-25T00:04:26;20.13;67.69
67862;DHT22;54665;51.462;6.698;2022-08-25T00:06:54;20.19;67.66
67862;DHT22;54665;51.462;6.698;2022-08-25T00:09:23;20.20;67.02
67862;DHT22;54665;51.462;6.698;2022-08-25T00:11:48;20.18;66.89
67862;DHT22;54665;51.462;6.698;2022-08-25T00:14:18;20.09;67.32
67862;DHT22;54665;51.462;6.698;2022-08-25T00:16:44;20.06;67.44
67862;DHT22;54665;51.462;6.698;2022-08-25T00:19:14;19.98;67.74
67862;DHT22;54665;51.462;6.698;2022-08-25T00:21:41;19.96;68.01
67862;DHT22;54665;51.462;6.698;2022-08-25T00:24:08;19.95;67.65
67862;DHT22;54665;51.462;6.698;2022-08-25T00:26:38;19.89;67.58
67862;DHT22;54665;51.462;6.698;2022-08-25T00:29:04;19.82;68.14
67862;DHT22;54665;51.462;6.698;2022-08-25T00:31:29;19.82;68.26
67862;DHT22;54665;51.462;6.698;2022-08-25T00:33:55;19.82;67.43
67862;DHT22;54665;51.462;6.698;2022-08-25T00:36:20;19.81;66.84
67862;DHT22;54665;51.462;6.698;2022-08-25T00:38:46;19.81;66.41
67862;DHT22;54665;51.462;6.698;2022-08-25T00:41:18;19.91;66.64
67862;DHT22;54665;51.462;6.698;2022-08-25T00:43:51;19.95;66.32
67862;DHT22;54665;51.462;6.698;2022-08-25T00:46:26;19.98;66.19
67862;DHT22;54665;51.462;6.698;2022-08-25T00:49:10;20.01;66.93
67862;DHT22;54665;51.462;6.698;2022-08-25T00:51:49;19.93;67.12
67862;DHT22;54665;51.462;6.698;2022-08-25T00:54:19;19.85;67.15
67862;DHT22;54665;51.462;6.698;2022-08-25T00:56:47;19.79;67.03
67862;DHT22;54665;51.462;6.698;2022-08-25T00:59:13;19.81;66.88
67862;DHT22;54665;51.462;6.698;2022-08-25T01:01:39;19.74;67.00
67862;DHT22;54665;51.462;6.698;2022-08-25T01:04:04;19.72;67.59
67862;DHT22;54665;51.462;6.698;2022-08-25T01:06:33;19.62;68.14
67862;DHT22;54665;51.462;6.698;2022-08-25T01:09:01;19.51;67.97
67862;DHT22;54665;51.462;6.698;2022-08-25T01:11:27;19.47;68.12
67862;DHT22;54665;51.462;6.698;2022-08-25T01:13:54;19.44;68.46
67862;DHT22;54665;51.462;6.698;2022-08-25T01:16:20;19.37;68.90
67862;DHT22;54665;51.462;6.698;2022-08-25T01:18:55;19.31;69.08
67862;DHT22;54665;51.462;6.698;2022-08-25T01:21:24;19.26;69.20
67862;DHT22;54665;51.462;6.698;2022-08-25T01:23:50;19.28;69.27
67862;DHT22;54665;51.462;6.698;2022-08-25T01:26:29;19.24;69.32
67862;DHT22;54665;51.462;6.698;2022-08-25T01:28:55;19.17;69.04
67862;DHT22;54665;51.462;6.698;2022-08-25T01:31:40;19.16;68.82
67862;DHT22;54665;51.462;6.698;2022-08-25T01:34:07;19.04;69.01
67862;DHT22;54665;51.462;6.698;2022-08-25T01:36:34;18.99;68.90
67862;DHT22;54665;51.462;6.698;2022-08-25T01:39:00;19.07;68.33
67862;DHT22;54665;51.462;6.698;2022-08-25T01:43:54;19.11;67.77
67862;DHT22;54665;51.462;6.698;2022-08-25T01:46:19;19.16;67.44
67862;DHT22;54665;51.462;6.698;2022-08-25T01:48:45;19.13;67.67
67862;DHT22;54665;51.462;6.698;2022-08-25T01:51:10;19.19;69.42
67862;DHT22;54665;51.462;6.698;2022-08-25T01:53:38;19.21;73.12
67862;DHT22;54665;51.462;6.698;2022-08-25T01:56:11;19.19;71.67
67862;DHT22;54665;51.462;6.698;2022-08-25T01:58:41;19.10;71.28
67862;DHT22;54665;51.462;6.698;2022-08-25T02:01:10;19.06;71.10
67862;DHT22;54665;51.462;6.698;2022-08-25T02:03:41;18.99;71.17
67862;DHT22;54665;51.462;6.698;2022-08-25T02:06:09;18.92;72.01
67862;DHT22;54665;51.462;6.698;2022-08-25T02:08:35;18.86;71.94
67862;DHT22;54665;51.462;6.698;2022-08-25T02:11:02;18.76;72.11
67862;DHT22;54665;51.462;6.698;2022-08-25T02:13:28;18.65;72.31
67862;DHT22;54665;51.462;6.698;2022-08-25T02:15:55;18.58;72.89
67862;DHT22;54665;51.462;6.698;2022-08-25T02:18:22;18.49;73.65
67862;DHT22;54665;51.462;6.698;2022-08-25T02:20:48;18.44;74.30
67862;DHT22;54665;51.462;6.698;2022-08-25T02:23:14;18.38;74.06
67862;DHT22;54665;51.462;6.698;2022-08-25T02:25:40;18.35;74.39
67862;DHT22;54665;51.462;6.698;2022-08-25T02:28:08;18.31;75.07
67862;DHT22;54665;51.462;6.698;2022-08-25T02:30:35;18.34;75.69
67862;DHT22;54665;51.462;6.698;2022-08-25T02:33:00;18.35;76.54
67862;DHT22;54665;51.462;6.698;2022-08-25T02:35:26;18.34;76.84
67862;DHT22;54665;51.462;6.698;2022-08-25T02:37:55;18.28;76.68
67862;DHT22;54665;51.462;6.698;2022-08-25T02:40:21;18.27;76.48
67862;DHT22;54665;51.462;6.698;2022-08-25T02:42:48;18.25;76.63
67862;DHT22;54665;51.462;6.698;2022-08-25T02:45:14;18.24;77.25
67862;DHT22;54665;51.462;6.698;2022-08-25T02:47:40;18.21;77.32
67862;DHT22;54665;51.462;6.698;2022-08-25T02:50:07;18.17;77.32
67862;DHT22;54665;51.462;6.698;2022-08-25T02:52:33;18.09;77.48
67862;DHT22;54665;51.462;6.698;2022-08-25T02:55:00;18.01;77.40
67862;DHT22;54665;51.462;6.698;2022-08-25T02:57:29;17.98;77.86
67862;DHT22;54665;51.462;6.698;2022-08-25T02:59:55;17.90;78.05
67862;DHT22;54665;51.462;6.698;2022-08-25T03:02:20;17.91;78.55
67862;DHT22;54665;51.462;6.698;2022-08-25T03:04:46;17.86;78.51
67862;DHT22;54665;51.462;6.698;2022-08-25T03:07:12;17.80;78.62
67862;DHT22;54665;51.462;6.698;2022-08-25T03:09:37;17.86;78.80
67862;DHT22;54665;51.462;6.698;2022-08-25T03:12:04;17.93;78.69
67862;DHT22;54665;51.462;6.698;2022-08-25T03:14:29;17.91;79.25
67862;DHT22;54665;51.462;6.698;2022-08-25T03:16:55;17.86;79.83
67862;DHT22;54665;51.462;6.698;2022-08-25T03:19:21;17.81;79.91
67862;DHT22;54665;51.462;6.698;2022-08-25T03:21:46;17.74;80.02
67862;DHT22;54665;51.462;6.698;2022-08-25T03:24:13;17.70;80.08
67862;DHT22;54665;51.462;6.698;2022-08-25T03:26:38;17.65;80.28
67862;DHT22;54665;51.462;6.698;2022-08-25T03:29:22;17.59;80.26
67862;DHT22;54665;51.462;6.698;2022-08-25T03:31:49;17.50;80.41
67862;DHT22;54665;51.462;6.698;2022-08-25T03:34:17;17.46;81.01
67862;DHT22;54665;51.462;6.698;2022-08-25T03:36:43;17.51;81.37
67862;DHT22;54665;51.462;6.698;2022-08-25T03:39:09;17.53;81.43
67862;DHT22;54665;51.462;6.698;2022-08-25T03:41:35;17.54;81.30
67862;DHT22;54665;51.462;6.698;2022-08-25T03:44:02;17.53;81.46
67862;DHT22;54665;51.462;6.698;2022-08-25T03:46:31;17.51;81.49
67862;DHT22;54665;51.462;6.698;2022-08-25T03:48:57;17.47;81.63
67862;DHT22;54665;51.462;6.698;2022-08-25T03:51:31;17.45;81.85
67862;DHT22;54665;51.462;6.698;2022-08-25T03:53:58;17.40;81.73
67862;DHT22;54665;51.462;6.698;2022-08-25T03:56:24;17.36;82.20
67862;DHT22;54665;51.462;6.698;2022-08-25T03:58:51;17.32;82.56
67862;DHT22;54665;51.462;6.698;2022-08-25T04:01:17;17.30;82.47
67862;DHT22;54665;51.462;6.698;2022-08-25T04:03:43;17.33;82.00
67862;DHT22;54665;51.462;6.698;2022-08-25T04:06:09;17.33;81.80
67862;DHT22;54665;51.462;6.698;2022-08-25T04:08:35;17.43;81.85
67862;DHT22;54665;51.462;6.698;2022-08-25T04:11:09;17.43;81.71
67862;DHT22;54665;51.462;6.698;2022-08-25T04:13:35;17.42;82.24
67862;DHT22;54665;51.462;6.698;2022-08-25T04:16:02;17.47;82.46
67862;DHT22;54665;51.462;6.698;2022-08-25T04:18:27;17.42;81.88
67862;DHT22;54665;51.462;6.698;2022-08-25T04:21:03;17.42;82.12
67862;DHT22;54665;51.462;6.698;2022-08-25T04:23:28;17.40;82.03
67862;DHT22;54665;51.462;6.698;2022-08-25T04:25:54;17.45;81.72
67862;DHT22;54665;51.462;6.698;2022-08-25T04:28:19;17.47;82.00
67862;DHT22;54665;51.462;6.698;2022-08-25T04:30:45;17.47;81.85
67862;DHT22;54665;51.462;6.698;2022-08-25T04:33:10;17.46;82.24
67862;DHT22;54665;51.462;6.698;2022-08-25T04:35:37;17.42;81.97
67862;DHT22;54665;51.462;6.698;2022-08-25T04:38:03;17.39;81.72
67862;DHT22;54665;51.462;6.698;2022-08-25T04:40:29;17.39;81.61
67862;DHT22;54665;51.462;6.698;2022-08-25T04:42:54;17.33;81.23
67862;DHT22;54665;51.462;6.698;2022-08-25T04:45:20;17.36;80.19
67862;DHT22;54665;51.462;6.698;2022-08-25T04:47:45;17.42;79.82
67862;DHT22;54665;51.462;6.698;2022-08-25T04:50:10;17.42;79.70
67862;DHT22;54665;51.462;6.698;2022-08-25T04:52:38;17.39;79.76
67862;DHT22;54665;51.462;6.698;2022-08-25T04:55:04;17.39;79.58
67862;DHT22;54665;51.462;6.698;2022-08-25T04:57:29;17.37;79.89
67862;DHT22;54665;51.462;6.698;2022-08-25T04:59:55;17.42;79.82
67862;DHT22;54665;51.462;6.698;2022-08-25T05:02:21;17.42;80.01
67862;DHT22;54665;51.462;6.698;2022-08-25T05:04:49;17.43;80.24
67862;DHT22;54665;51.462;6.698;2022-08-25T05:07:15;17.49;80.44
67862;DHT22;54665;51.462;6.698;2022-08-25T05:09:40;17.53;80.41
67862;DHT22;54665;51.462;6.698;2022-08-25T05:12:06;17.54;80.11
67862;DHT22;54665;51.462;6.698;2022-08-25T05:14:32;17.56;80.16
67862;DHT22;54665;51.462;6.698;2022-08-25T05:16:58;17.59;80.32
67862;DHT22;54665;51.462;6.698;2022-08-25T05:19:23;17.67;80.38
67862;DHT22;54665;51.462;6.698;2022-08-25T05:21:49;17.77;79.76
67862;DHT22;54665;51.462;6.698;2022-08-25T05:24:15;17.87;79.52
67862;DHT22;54665;51.462;6.698;2022-08-25T05:26:40;17.96;79.11
67862;DHT22;54665;51.462;6.698;2022-08-25T05:29:06;17.98;78.73
67862;DHT22;54665;51.462;6.698;2022-08-25T05:31:32;18.04;78.58
67862;DHT22;54665;51.462;6.698;2022-08-25T05:33:58;18.04;78.44
67862;DHT22;54665;51.462;6.698;2022-08-25T05:36:26;18.11;78.27
67862;DHT22;54665;51.462;6.698;2022-08-25T05:38:52;18.19;78.19
67862;DHT22;54665;51.462;6.698;2022-08-25T05:41:20;18.27;79.07
67862;DHT22;54665;51.462;6.698;2022-08-25T05:43:50;18.37;78.91
67862;DHT22;54665;51.462;6.698;2022-08-25T05:46:17;18.45;78.34
67862;DHT22;54665;51.462;6.698;2022-08-25T05:48:43;18.60;77.35
67862;DHT22;54665;51.462;6.698;2022-08-25T05:51:10;18.75;75.67
67862;DHT22;54665;51.462;6.698;2022-08-25T05:53:36;18.89;75.24
67862;DHT22;54665;51.462;6.698;2022-08-25T05:56:02;19.07;74.84
67862;DHT22;54665;51.462;6.698;2022-08-25T05:58:28;19.20;74.50
67862;DHT22;54665;51.462;6.698;2022-08-25T06:00:56;19.30;73.97
67862;DHT22;54665;51.462;6.698;2022-08-25T06:03:22;19.40;73.00
67862;DHT22;54665;51.462;6.698;2022-08-25T06:05:48;19.53;73.06
67862;DHT22;54665;51.462;6.698;2022-08-25T06:08:13;19.65;72.16
67862;DHT22;54665;51.462;6.698;2022-08-25T06:10:40;19.82;71.10
67862;DHT22;54665;51.462;6.698;2022-08-25T06:13:06;20.02;70.61
67862;DHT22;54665;51.462;6.698;2022-08-25T06:15:31;20.18;69.76
67862;DHT22;54665;51.462;6.698;2022-08-25T06:17:58;20.28;69.58
67862;DHT22;54665;51.462;6.698;2022-08-25T06:20:27;20.32;70.39
67862;DHT22;54665;51.462;6.698;2022-08-25T06:22:53;20.42;69.81
67862;DHT22;54665;51.462;6.698;2022-08-25T06:25:21;20.52;69.50
67862;DHT22;54665;51.462;6.698;2022-08-25T06:27:48;20.57;69.12
67862;DHT22;54665;51.462;6.698;2022-08-25T06:30:16;20.66;68.85
67862;DHT22;54665;51.462;6.698;2022-08-25T06:32:43;20.79;68.24
67862;DHT22;54665;51.462;6.698;2022-08-25T06:35:11;20.90;66.67
67862;DHT22;54665;51.462;6.698;2022-08-25T06:37:38;21.08;67.07
67862;DHT22;54665;51.462;6.698;2022-08-25T06:40:04;21.18;66.43
67862;DHT22;54665;51.462;6.698;2022-08-25T06:42:31;21.32;65.49
67862;DHT22;54665;51.462;6.698;2022-08-25T06:44:56;21.56;63.57
67862;DHT22;54665;51.462;6.698;2022-08-25T06:47:22;21.76;63.21
67862;DHT22;54665;51.462;6.698;2022-08-25T06:49:48;21.97;62.95
67862;DHT22;54665;51.462;6.698;2022-08-25T06:52:14;22.13;62.00
67862;DHT22;54665;51.462;6.698;2022-08-25T06:54:40;22.23;61.30
67862;DHT22;54665;51.462;6.698;2022-08-25T06:57:06;22.40;60.94
67862;DHT22;54665;51.462;6.698;2022-08-25T06:59:36;22.57;60.60
67862;DHT22;54665;51.462;6.698;2022-08-25T07:02:03;23.11;59.06
67862;DHT22;54665;51.462;6.698;2022-08-25T07:04:29;24.64;56.12
67862;DHT22;54665;51.462;6.698;2022-08-25T07:06:54;26.14;51.06
67862;DHT22;54665;51.462;6.698;2022-08-25T07:09:20;27.08;47.92
67862;DHT22;54665;51.462;6.698;2022-08-25T07:11:45;27.88;46.01
67862;DHT22;54665;51.462;6.698;2022-08-25T07:14:13;28.49;44.83
67862;DHT22;54665;51.462;6.698;2022-08-25T07:16:40;28.56;44.76
67862;DHT22;54665;51.462;6.698;2022-08-25T07:19:06;28.81;43.85
67862;DHT22;54665;51.462;6.698;2022-08-25T07:21:34;29.60;42.95
67862;DHT22;54665;51.462;6.698;2022-08-25T07:24:01;30.00;41.93
67862;DHT22;54665;51.462;6.698;2022-08-25T07:26:30;30.31;42.08
67862;DHT22;54665;51.462;6.698;2022-08-25T07:28:56;30.20;39.87
67862;DHT22;54665;51.462;6.698;2022-08-25T07:31:24;30.35;40.55
67862;DHT22;54665;51.462;6.698;2022-08-25T07:33:49;30.62;39.52
67862;DHT22;54665;51.462;6.698;2022-08-25T07:36:33;30.48;40.16
67862;DHT22;54665;51.462;6.698;2022-08-25T07:38:59;30.91;39.63
67862;DHT22;54665;51.462;6.698;2022-08-25T07:41:29;31.30;38.72
67862;DHT22;54665;51.462;6.698;2022-08-25T07:43:55;31.50;38.90
67862;DHT22;54665;51.462;6.698;2022-08-25T07:46:21;31.73;37.75
67862;DHT22;54665;51.462;6.698;2022-08-25T07:48:46;32.20;37.72
67862;DHT22;54665;51.462;6.698;2022-08-25T07:51:13;31.77;37.58
67862;DHT22;54665;51.462;6.698;2022-08-25T07:53:40;31.26;38.43
67862;DHT22;54665;51.462;6.698;2022-08-25T07:56:10;31.18;38.64
67862;DHT22;54665;51.462;6.698;2022-08-25T07:58:37;31.53;38.07
67862;DHT22;54665;51.462;6.698;2022-08-25T08:01:03;31.88;38.15
67862;DHT22;54665;51.462;6.698;2022-08-25T08:03:29;31.91;37.21
67862;DHT22;54665;51.462;6.698;2022-08-25T08:05:54;32.18;36.39
67862;DHT22;54665;51.462;6.698;2022-08-25T08:08:21;32.31;36.47
67862;DHT22;54665;51.462;6.698;2022-08-25T08:10:47;32.15;36.60
67862;DHT22;54665;51.462;6.698;2022-08-25T08:13:12;32.35;36.76
67862;DHT22;54665;51.462;6.698;2022-08-25T08:15:41;32.39;36.35
67862;DHT22;54665;51.462;6.698;2022-08-25T08:18:07;32.22;37.12
67862;DHT22;54665;51.462;6.698;2022-08-25T08:20:33;32.52;36.74
67862;DHT22;54665;51.462;6.698;2022-08-25T08:22:58;32.72;36.54
67862;DHT22;54665;51.462;6.698;2022-08-25T08:25:24;33.16;36.33
67862;DHT22;54665;51.462;6.698;2022-08-25T08:27:50;32.90;35.96
67862;DHT22;54665;51.462;6.698;2022-08-25T08:30:15;32.82;35.63
67862;DHT22;54665;51.462;6.698;2022-08-25T08:32:41;32.36;36.03
67862;DHT22;54665;51.462;6.698;2022-08-25T08:35:08;32.51;36.72
67862;DHT22;54665;51.462;6.698;2022-08-25T08:37:34;32.75;36.53
67862;DHT22;54665;51.462;6.698;2022-08-25T08:40:05;33.13;35.47
67862;DHT22;54665;51.462;6.698;2022-08-25T08:43:00;33.14;36.06
67862;DHT22;54665;51.462;6.698;2022-08-25T08:45:57;33.09;36.04
67862;DHT22;54665;51.462;6.698;2022-08-25T08:48:42;33.37;35.06
67862;DHT22;54665;51.462;6.698;2022-08-25T08:51:18;33.43;34.82
67862;DHT22;54665;51.462;6.698;2022-08-25T08:54:09;32.98;36.05
67862;DHT22;54665;51.462;6.698;2022-08-25T08:56:43;33.19;35.22
67862;DHT22;54665;51.462;6.698;2022-08-25T08:59:14;33.33;35.36
67862;DHT22;54665;51.462;6.698;2022-08-25T09:01:46;33.40;34.99
67862;DHT22;54665;51.462;6.698;2022-08-25T09:06:57;33.71;34.30
67862;DHT22;54665;51.462;6.698;2022-08-25T09:09:31;33.92;34.25
67862;DHT22;54665;51.462;6.698;2022-08-25T09:12:36;33.94;34.48
67862;DHT22;54665;51.462;6.698;2022-08-25T09:18:40;34.29;32.49
67862;DHT22;54665;51.462;6.698;2022-08-25T09:28:45;33.95;32.83
67862;DHT22;54665;51.462;6.698;2022-08-25T09:31:21;34.04;32.66
67862;DHT22;54665;51.462;6.698;2022-08-25T09:33:47;34.12;32.38
67862;DHT22;54665;51.462;6.698;2022-08-25T09:36:13;34.29;33.69
67862;DHT22;54665;51.462;6.698;2022-08-25T09:38:38;34.69;32.41
67862;DHT22;54665;51.462;6.698;2022-08-25T09:41:05;34.90;32.59
67862;DHT22;54665;51.462;6.698;2022-08-25T09:43:36;34.78;32.12
67862;DHT22;54665;51.462;6.698;2022-08-25T09:48:52;34.83;32.05
67862;DHT22;54665;51.462;6.698;2022-08-25T09:51:34;34.46;32.24
67862;DHT22;54665;51.462;6.698;2022-08-25T09:56:56;34.59;32.09
67862;DHT22;54665;51.462;6.698;2022-08-25T09:59:28;34.66;31.29
67862;DHT22;54665;51.462;6.698;2022-08-25T10:01:58;34.57;31.44
67862;DHT22;54665;51.462;6.698;2022-08-25T10:04:35;34.48;31.98
67862;DHT22;54665;51.462;6.698;2022-08-25T10:07:04;34.49;32.78
67862;DHT22;54665;51.462;6.698;2022-08-25T10:09:35;34.63;32.05
67862;DHT22;54665;51.462;6.698;2022-08-25T10:12:15;34.92;31.36
67862;DHT22;54665;51.462;6.698;2022-08-25T10:14:41;34.82;32.19
67862;DHT22;54665;51.462;6.698;2022-08-25T10:17:16;34.60;31.64
67862;DHT22;54665;51.462;6.698;2022-08-25T10:19:48;34.86;30.83
67862;DHT22;54665;51.462;6.698;2022-08-25T10:22:21;35.13;29.81
67862;DHT22;54665;51.462;6.698;2022-08-25T10:24:48;34.08;30.88
67862;DHT22;54665;51.462;6.698;2022-08-25T10:30:00;34.13;32.07
67862;DHT22;54665;51.462;6.698;2022-08-25T10:35:13;34.23;31.08
67862;DHT22;54665;51.462;6.698;2022-08-25T10:45:19;33.68;31.75
67862;DHT22;54665;51.462;6.698;2022-08-25T11:04:24;33.54;32.32
67862;DHT22;54665;51.462;6.698;2022-08-25T11:07:00;33.55;32.29
67862;DHT22;54665;51.462;6.698;2022-08-25T11:09:35;32.89;33.08
67862;DHT22;54665;51.462;6.698;2022-08-25T11:12:29;33.16;33.46
67862;DHT22;54665;51.462;6.698;2022-08-25T11:14:56;33.33;32.86
67862;DHT22;54665;51.462;6.698;2022-08-25T11:17:31;33.04;33.26
67862;DHT22;54665;51.462;6.698;2022-08-25T11:20:04;33.24;33.24
67862;DHT22;54665;51.462;6.698;2022-08-25T11:22:38;32.92;33.88
67862;DHT22;54665;51.462;6.698;2022-08-25T11:25:16;33.16;33.07
67862;DHT22;54665;51.462;6.698;2022-08-25T11:27:54;33.14;33.51
67862;DHT22;54665;51.462;6.698;2022-08-25T11:30:22;33.64;33.65
67862;DHT22;54665;51.462;6.698;2022-08-25T11:32:50;33.95;31.31
67862;DHT22;54665;51.462;6.698;2022-08-25T11:35:28;33.49;32.26
67862;DHT22;54665;51.462;6.698;2022-08-25T11:43:51;33.22;32.54
67862;DHT22;54665;51.462;6.698;2022-08-25T11:46:30;33.65;33.17
67862;DHT22;54665;51.462;6.698;2022-08-25T11:51:49;34.41;30.25
67862;DHT22;54665;51.462;6.698;2022-08-25T11:54:21;34.29;30.98
67862;DHT22;54665;51.462;6.698;2022-08-25T11:56:56;34.42;30.65
67862;DHT22;54665;51.462;6.698;2022-08-25T12:04:57;35.00;28.20
67862;DHT22;54665;51.462;6.698;2022-08-25T12:07:28;35.08;28.84
67862;DHT22;54665;51.462;6.698;2022-08-25T12:15:27;34.64;29.58
67862;DHT22;54665;51.462;6.698;2022-08-25T12:23:36;35.61;28.32
67862;DHT22;54665;51.462;6.698;2022-08-25T12:26:15;35.98;27.92
67862;DHT22;54665;51.462;6.698;2022-08-25T12:29:06;35.91;26.92
67862;DHT22;54665;51.462;6.698;2022-08-25T12:40:28;36.36;29.31
67862;DHT22;54665;51.462;6.698;2022-08-25T12:43:11;36.33;27.59
67862;DHT22;54665;51.462;6.698;2022-08-25T12:45:41;36.18;28.81
67862;DHT22;54665;51.462;6.698;2022-08-25T12:51:16;36.21;28.24
67862;DHT22;54665;51.462;6.698;2022-08-25T12:56:26;35.74;27.22
67862;DHT22;54665;51.462;6.698;2022-08-25T13:01:31;36.19;26.82
67862;DHT22;54665;51.462;6.698;2022-08-25T13:04:27;36.50;27.07
67862;DHT22;54665;51.462;6.698;2022-08-25T13:07:08;36.26;27.04
67862;DHT22;54665;51.462;6.698;2022-08-25T13:15:46;36.54;27.59
67862;DHT22;54665;51.462;6.698;2022-08-25T13:18:26;35.93;27.42
67862;DHT22;54665;51.462;6.698;2022-08-25T13:21:23;36.09;27.54
67862;DHT22;54665;51.462;6.698;2022-08-25T13:23:54;36.31;27.86
67862;DHT22;54665;51.462;6.698;2022-08-25T13:26:23;36.60;27.34
67862;DHT22;54665;51.462;6.698;2022-08-25T13:28:54;36.23;26.71
67862;DHT22;54665;51.462;6.698;2022-08-25T13:31:21;36.44;27.47
67862;DHT22;54665;51.462;6.698;2022-08-25T13:33:55;36.26;27.33
67862;DHT22;54665;51.462;6.698;2022-08-25T13:36:23;35.50;26.83
67862;DHT22;54665;51.462;6.698;2022-08-25T13:39:26;34.80;27.65
67862;DHT22;54665;51.462;6.698;2022-08-25T13:41:55;34.11;29.22
67862;DHT22;54665;51.462;6.698;2022-08-25T13:44:24;34.52;28.80
67862;DHT22;54665;51.462;6.698;2022-08-25T13:47:14;35.07;27.17
67862;DHT22;54665;51.462;6.698;2022-08-25T13:49:43;35.14;26.85
67862;DHT22;54665;51.462;6.698;2022-08-25T13:52:17;35.65;26.21
67862;DHT22;54665;51.462;6.698;2022-08-25T13:54:48;35.99;26.71
67862;DHT22;54665;51.462;6.698;2022-08-25T13:57:25;35.95;26.27
67862;DHT22;54665;51.462;6.698;2022-08-25T14:00:05;36.36;26.50
67862;DHT22;54665;51.462;6.698;2022-08-25T14:05:10;36.84;26.15
67862;DHT22;54665;51.462;6.698;2022-08-25T14:07:37;37.14;24.46
67862;DHT22;54665;51.462;6.698;2022-08-25T14:10:39;37.41;24.58
67862;DHT22;54665;51.462;6.698;2022-08-25T14:13:15;37.37;24.98
67862;DHT22;54665;51.462;6.698;2022-08-25T14:15:44;37.42;23.72
67862;DHT22;54665;51.462;6.698;2022-08-25T14:18:29;35.98;24.25
67862;DHT22;54665;51.462;6.698;2022-08-25T14:20:56;35.27;24.64
67862;DHT22;54665;51.462;6.698;2022-08-25T14:23:27;35.77;25.28
67862;DHT22;54665;51.462;6.698;2022-08-25T14:25:55;35.82;24.72
67862;DHT22;54665;51.462;6.698;2022-08-25T14:28:23;35.26;25.48
67862;DHT22;54665;51.462;6.698;2022-08-25T14:31:04;35.75;26.13
67862;DHT22;54665;51.462;6.698;2022-08-25T14:33:34;36.29;26.23
67862;DHT22;54665;51.462;6.698;2022-08-25T14:36:04;36.42;25.31
67862;DHT22;54665;51.462;6.698;2022-08-25T14:38:32;36.80;23.48
67862;DHT22;54665;51.462;6.698;2022-08-25T14:40:58;36.97;24.83
67862;DHT22;54665;51.462;6.698;2022-08-25T14:43:23;37.11;24.16
67862;DHT22;54665;51.462;6.698;2022-08-25T14:45:49;37.00;25.10
67862;DHT22;54665;51.462;6.698;2022-08-25T14:48:27;36.49;25.43
67862;DHT22;54665;51.462;6.698;2022-08-25T14:50:55;36.67;25.37
67862;DHT22;54665;51.462;6.698;2022-08-25T14:53:23;36.83;24.74
67862;DHT22;54665;51.462;6.698;2022-08-25T14:55:49;37.03;24.24
67862;DHT22;54665;51.462;6.698;2022-08-25T14:58:19;37.08;24.32
67862;DHT22;54665;51.462;6.698;2022-08-25T15:00:46;37.14;23.49
67862;DHT22;54665;51.462;6.698;2022-08-25T15:03:14;37.41;24.64
67862;DHT22;54665;51.462;6.698;2022-08-25T15:05:40;37.39;25.30
67862;DHT22;54665;51.462;6.698;2022-08-25T15:08:06;37.45;24.69
67862;DHT22;54665;51.462;6.698;2022-08-25T15:10:50;37.18;23.91
67862;DHT22;54665;51.462;6.698;2022-08-25T15:13:16;36.95;25.25
67862;DHT22;54665;51.462;6.698;2022-08-25T15:15:43;37.14;25.23
67862;DHT22;54665;51.462;6.698;2022-08-25T15:18:09;37.08;24.35
67862;DHT22;54665;51.462;6.698;2022-08-25T15:20:35;37.17;23.91
67862;DHT22;54665;51.462;6.698;2022-08-25T15:23:01;37.17;25.19
67862;DHT22;54665;51.462;6.698;2022-08-25T15:25:26;37.08;24.27
67862;DHT22;54665;51.462;6.698;2022-08-25T15:27:53;36.93;24.59
67862;DHT22;54665;51.462;6.698;2022-08-25T15:30:19;37.00;23.97
67862;DHT22;54665;51.462;6.698;2022-08-25T15:32:45;36.87;24.62
67862;DHT22;54665;51.462;6.698;2022-08-25T15:35:10;37.14;25.41
67862;DHT22;54665;51.462;6.698;2022-08-25T15:37:37;36.72;24.16
67862;DHT22;54665;51.462;6.698;2022-08-25T15:40:03;36.42;24.18
67862;DHT22;54665;51.462;6.698;2022-08-25T15:42:29;36.21;24.72
67862;DHT22;54665;51.462;6.698;2022-08-25T15:44:55;35.92;24.65
67862;DHT22;54665;51.462;6.698;2022-08-25T15:47:22;36.23;24.69
67862;DHT22;54665;51.462;6.698;2022-08-25T15:49:49;36.26;24.83
67862;DHT22;54665;51.462;6.698;2022-08-25T15:52:14;36.67;26.36
67862;DHT22;54665;51.462;6.698;2022-08-25T15:54:40;37.07;24.93
67862;DHT22;54665;51.462;6.698;2022-08-25T15:57:05;37.13;24.12
67862;DHT22;54665;51.462;6.698;2022-08-25T15:59:31;36.94;24.39
67862;DHT22;54665;51.462;6.698;2022-08-25T16:01:57;36.54;23.96
67862;DHT22;54665;51.462;6.698;2022-08-25T16:04:25;36.47;25.32
67862;DHT22;54665;51.462;6.698;2022-08-25T16:06:52;36.36;25.64
67862;DHT22;54665;51.462;6.698;2022-08-25T16:09:19;36.46;24.71
67862;DHT22;54665;51.462;6.698;2022-08-25T16:11:44;36.49;25.19
67862;DHT22;54665;51.462;6.698;2022-08-25T16:14:10;36.67;25.19
67862;DHT22;54665;51.462;6.698;2022-08-25T16:16:37;36.56;25.71
67862;DHT22;54665;51.462;6.698;2022-08-25T16:19:05;36.43;26.28
67862;DHT22;54665;51.462;6.698;2022-08-25T16:21:33;36.36;24.90
67862;DHT22;54665;51.462;6.698;2022-08-25T16:24:04;35.86;24.68
67862;DHT22;54665;51.462;6.698;2022-08-25T16:26:30;35.93;26.26
67862;DHT22;54665;51.462;6.698;2022-08-25T16:28:56;35.89;26.23
67862;DHT22;54665;51.462;6.698;2022-08-25T16:31:22;35.65;25.93
67862;DHT22;54665;51.462;6.698;2022-08-25T16:33:48;35.23;27.00
67862;DHT22;54665;51.462;6.698;2022-08-25T16:36:17;34.82;27.48
67862;DHT22;54665;51.462;6.698;2022-08-25T16:38:44;34.60;26.64
67862;DHT22;54665;51.462;6.698;2022-08-25T16:41:13;34.51;28.16
67862;DHT22;54665;51.462;6.698;2022-08-25T16:43:39;34.38;27.34
67862;DHT22;54665;51.462;6.698;2022-08-25T16:46:08;34.12;28.14
67862;DHT22;54665;51.462;6.698;2022-08-25T16:48:34;33.82;27.80
67862;DHT22;54665;51.462;6.698;2022-08-25T16:51:08;33.54;30.05
67862;DHT22;54665;51.462;6.698;2022-08-25T16:53:34;33.17;29.21
67862;DHT22;54665;51.462;6.698;2022-08-25T16:56:18;32.80;28.63
67862;DHT22;54665;51.462;6.698;2022-08-25T16:58:54;32.59;28.80
67862;DHT22;54665;51.462;6.698;2022-08-25T17:01:21;32.36;29.26
67862;DHT22;54665;51.462;6.698;2022-08-25T17:03:47;32.34;29.43
67862;DHT22;54665;51.462;6.698;2022-08-25T17:06:15;32.22;30.13
67862;DHT22;54665;51.462;6.698;2022-08-25T17:08:40;32.12;29.71
67862;DHT22;54665;51.462;6.698;2022-08-25T17:11:13;32.04;30.41
67862;DHT22;54665;51.462;6.698;2022-08-25T17:13:41;31.88;31.06
67862;DHT22;54665;51.462;6.698;2022-08-25T17:16:07;31.73;30.39
67862;DHT22;54665;51.462;6.698;2022-08-25T17:18:33;31.63;32.45
67862;DHT22;54665;51.462;6.698;2022-08-25T17:21:04;31.54;30.40
67862;DHT22;54665;51.462;6.698;2022-08-25T17:23:30;31.42;30.30
67862;DHT22;54665;51.462;6.698;2022-08-25T17:25:56;31.29;31.06